Time;durP1;ratioP1;P1;durP2;ratioP2;P2;SDS_P1;SDS_P2;PMS_P1;PMS_P2;Temp;Humidity;BMP_temperature;BMP_pressure;BME280_temperature;BME280_humidity;BME280_pressure;Samples;Min_cycle;Max_cycle;Signal;HPM_P1;HPM_P2
2023/04/07 00:02:29;;;;;;;13.55;12.23;;;5.20;1.00;;;;;;4918747;29;20267;-87
2023/04/07 00:04:57;;;;;;;12.38;11.00;;;5.10;1.00;;;;;;4914284;28;20242;-87
2023/04/07 00:07:24;;;;;;;15.90;12.40;;;5.00;1.00;;;;;;4920593;29;20250;-88
2023/04/07 00:09:51;;;;;;;12.65;11.45;;;5.00;1.00;;;;;;4924906;29;20243;-88
2023/04/07 00:12:19;;;;;;;13.05;11.98;;;5.00;1.00;;;;;;4918119;28;20292;-87
2023/04/07 00:14:46;;;;;;;16.52;12.50;;;5.00;1.00;;;;;;4921645;29;20301;-87
2023/04/07 00:17:13;;;;;;;12.93;11.60;;;4.90;1.00;;;;;;4918514;28;20274;-88
2023/04/07 00:19:42;;;;;;;14.80;13.05;;;4.90;1.00;;;;;;4921210;28;20232;-87
2023/04/07 00:22:10;;;;;;;13.10;11.80;;;5.00;1.00;;;;;;4918398;29;20319;-87
2023/04/07 00:24:37;;;;;;;13.88;12.40;;;4.90;1.00;;;;;;4922141;29;20255;-87
2023/04/07 00:27:04;;;;;;;12.32;10.75;;;4.90;1.00;;;;;;4917529;28;20241;-87
2023/04/07 00:29:33;;;;;;;10.68;9.70;;;4.80;1.00;;;;;;4908372;28;20245;-87
2023/04/07 00:32:00;;;;;;;11.68;9.48;;;4.90;1.00;;;;;;4918434;28;20285;-86
2023/04/07 00:34:27;;;;;;;10.20;9.20;;;4.90;1.00;;;;;;4920945;29;20238;-87
2023/04/07 00:36:55;;;;;;;10.70;9.57;;;4.90;1.00;;;;;;4923582;28;20231;-87
2023/04/07 00:39:23;;;;;;;9.55;8.52;;;4.90;1.00;;;;;;4918584;28;20246;-87
2023/04/07 00:41:50;;;;;;;9.73;8.80;;;4.90;1.00;;;;;;4921377;28;20277;-88
2023/04/07 00:44:17;;;;;;;9.63;8.73;;;4.90;1.00;;;;;;4919796;29;20333;-87
2023/04/07 00:46:47;;;;;;;8.15;7.40;;;4.80;1.00;;;;;;4916915;28;20247;-87
2023/04/07 00:49:16;;;;;;;8.98;8.05;;;4.90;1.00;;;;;;4919219;29;21150;-87
2023/04/07 00:51:44;;;;;;;9.43;8.40;;;4.90;1.00;;;;;;4915035;29;20242;-87
2023/04/07 00:54:16;;;;;;;9.82;8.85;;;4.90;1.00;;;;;;4920235;29;20267;-85
2023/04/07 00:56:45;;;;;;;9.23;8.27;;;5.00;1.00;;;;;;4920621;29;21016;-87
2023/04/07 00:59:12;;;;;;;8.48;7.78;;;4.90;1.00;;;;;;4921081;28;20321;-88
2023/04/07 01:04:35;;;;;;;9.18;8.27;;;5.00;1.00;;;;;;4905158;29;20270;-82
2023/04/07 01:07:10;;;;;;;10.65;8.65;;;5.00;1.00;;;;;;4939087;23;20319;-83
2023/04/07 01:09:52;;;;;;;26.60;20.83;;;5.00;1.00;;;;;;4875813;29;20322;-82
2023/04/07 01:12:35;;;;;;;10.13;8.95;;;5.00;1.00;;;;;;4877297;29;20996;-82
2023/04/07 01:15:10;;;;;;;9.63;8.45;;;5.00;1.00;;;;;;4897968;29;20246;-83
2023/04/07 01:17:39;;;;;;;9.60;8.60;;;5.00;1.00;;;;;;4911564;29;20250;-82
2023/04/07 01:20:12;;;;;;;8.90;7.72;;;5.00;1.00;;;;;;4910857;29;20301;-83
2023/04/07 01:22:46;;;;;;;9.60;8.60;;;5.00;1.00;;;;;;4894314;29;20354;-82
2023/04/07 01:25:37;;;;;;;9.45;8.55;;;5.00;1.00;;;;;;4904327;29;20264;-82
2023/04/07 01:28:30;;;;;;;10.05;8.50;;;4.90;1.00;;;;;;4908134;28;20246;-83
2023/04/07 01:31:01;;;;;;;8.85;7.95;;;4.90;1.00;;;;;;4921313;29;21779;-82
2023/04/07 01:33:33;;;;;;;12.13;8.23;;;4.90;1.00;;;;;;4884360;29;20234;-83
2023/04/07 01:36:02;;;;;;;11.32;9.00;;;4.90;1.00;;;;;;4921793;29;20270;-83
2023/04/07 01:41:13;;;;;;;9.30;8.45;;;4.80;1.00;;;;;;4931479;28;20242;-81
2023/04/07 01:43:42;;;;;;;10.20;9.20;;;4.90;1.00;;;;;;4914452;29;20234;-82
2023/04/07 01:46:13;;;;;;;10.98;8.07;;;4.90;1.00;;;;;;4930291;28;20241;-82
2023/04/07 01:48:43;;;;;;;8.90;8.10;;;4.90;1.00;;;;;;4932175;29;20247;-82
2023/04/07 01:51:16;;;;;;;10.23;9.20;;;4.90;1.00;;;;;;4926331;29;20245;-81
2023/04/07 01:53:45;;;;;;;10.10;9.02;;;4.90;1.00;;;;;;4922961;28;20298;-81
2023/04/07 01:56:12;;;;;;;10.80;9.38;;;4.90;1.00;;;;;;4933303;28;20234;-81
2023/04/07 01:58:41;;;;;;;9.18;8.25;;;4.80;1.00;;;;;;4917285;29;20239;-82
2023/04/07 02:01:12;;;;;;;9.07;7.70;;;4.80;1.00;;;;;;4920514;29;20309;-82
2023/04/07 02:03:50;;;;;;;10.43;9.05;;;4.80;1.00;;;;;;4927406;29;20231;-83
2023/04/07 02:06:23;;;;;;;7.90;7.20;;;4.80;1.00;;;;;;4933305;29;20252;-82
2023/04/07 02:08:56;;;;;;;11.70;8.07;;;4.70;1.00;;;;;;4905038;29;20298;-81
2023/04/07 02:11:26;;;;;;;9.68;8.63;;;4.70;1.00;;;;;;4928783;28;20262;-81
2023/04/07 02:13:55;;;;;;;9.00;7.90;;;4.70;1.00;;;;;;4910233;29;20238;-83
2023/04/07 02:16:27;;;;;;;10.98;8.63;;;4.60;1.00;;;;;;4911868;29;20313;-83
2023/04/07 02:18:57;;;;;;;9.40;8.45;;;4.60;1.00;;;;;;4914483;29;20246;-83
2023/04/07 02:21:30;;;;;;;8.68;7.78;;;4.60;1.00;;;;;;4912203;29;20243;-82
2023/04/07 02:24:00;;;;;;;9.63;8.73;;;4.70;1.00;;;;;;4914233;29;20253;-83
2023/04/07 02:26:33;;;;;;;10.10;8.68;;;4.60;1.00;;;;;;4913890;29;20234;-82
2023/04/07 02:29:01;;;;;;;9.55;8.20;;;4.60;1.00;;;;;;4915874;29;20239;-82
2023/04/07 02:31:33;;;;;;;9.48;8.60;;;4.60;1.00;;;;;;4907778;29;20249;-83
2023/04/07 02:34:03;;;;;;;9.07;8.02;;;4.60;1.00;;;;;;4893672;29;21031;-82
2023/04/07 02:36:31;;;;;;;10.20;8.45;;;4.60;1.00;;;;;;4911680;29;20252;-82
2023/04/07 02:38:59;;;;;;;9.48;8.55;;;4.60;1.00;;;;;;4914875;29;20341;-82
2023/04/07 02:41:28;;;;;;;8.80;7.95;;;4.70;1.00;;;;;;4911212;29;20334;-83
2023/04/07 02:43:56;;;;;;;9.15;8.05;;;4.80;1.00;;;;;;4906584;29;20247;-83
2023/04/07 02:46:27;;;;;;;8.55;7.65;;;4.80;1.00;;;;;;4903157;29;20243;-81
2023/04/07 02:48:59;;;;;;;9.85;8.80;;;4.70;1.00;;;;;;4870275;29;20248;-82
2023/04/07 02:51:27;;;;;;;8.57;7.75;;;4.70;1.00;;;;;;4912584;29;21080;-81
2023/04/07 02:53:57;;;;;;;12.05;10.00;;;4.70;1.00;;;;;;4911402;29;20255;-83
2023/04/07 02:56:25;;;;;;;10.30;9.05;;;4.70;1.00;;;;;;4904159;29;20269;-82
2023/04/07 02:58:52;;;;;;;10.10;8.18;;;4.70;1.00;;;;;;4912345;29;20257;-82
2023/04/07 03:01:19;;;;;;;9.70;8.38;;;4.70;1.00;;;;;;4916813;29;20243;-82
2023/04/07 03:03:48;;;;;;;9.93;8.27;;;4.80;1.00;;;;;;4907623;29;22381;-83
2023/04/07 03:06:18;;;;;;;11.18;9.00;;;4.80;1.00;;;;;;4911781;29;20250;-83
2023/04/07 03:08:45;;;;;;;9.52;8.52;;;4.80;1.00;;;;;;4909767;28;20245;-82
2023/04/07 03:11:15;;;;;;;9.73;8.75;;;4.80;1.00;;;;;;4912732;29;20238;-83
2023/04/07 03:13:43;;;;;;;11.05;8.93;;;4.80;1.00;;;;;;4908807;29;20242;-83
2023/04/07 03:16:10;;;;;;;10.07;8.27;;;4.80;1.00;;;;;;4893409;29;20238;-83
2023/04/07 03:18:39;;;;;;;9.45;8.60;;;4.80;1.00;;;;;;4899735;29;20256;-83
2023/04/07 03:21:07;;;;;;;8.65;7.60;;;4.90;1.00;;;;;;4883745;29;20255;-83
2023/04/07 03:23:37;;;;;;;9.35;8.45;;;4.90;1.00;;;;;;4908511;29;20324;-83
2023/04/07 03:26:11;;;;;;;10.20;8.38;;;4.90;1.00;;;;;;4892426;29;20238;-82
2023/04/07 03:28:44;;;;;;;9.68;8.10;;;4.90;1.00;;;;;;4909060;29;20246;-82
2023/04/07 03:31:12;;;;;;;10.80;8.93;;;5.00;1.00;;;;;;4890637;29;20240;-82
2023/04/07 03:33:41;;;;;;;8.30;7.50;;;5.00;1.00;;;;;;4890258;29;20714;-82
2023/04/07 03:36:08;;;;;;;9.40;8.35;;;5.00;1.00;;;;;;4909210;29;20928;-82
2023/04/07 03:38:47;;;;;;;10.40;9.30;;;5.00;1.00;;;;;;4875140;29;20246;-82
2023/04/07 03:41:15;;;;;;;10.75;8.90;;;5.10;1.00;;;;;;4913238;29;20274;-82
2023/04/07 03:43:42;;;;;;;10.85;9.25;;;5.10;1.00;;;;;;4906186;29;20247;-82
2023/04/07 03:46:10;;;;;;;8.57;7.80;;;5.10;1.00;;;;;;4910197;29;20317;-82
2023/04/07 03:48:39;;;;;;;9.52;8.60;;;5.20;1.00;;;;;;4902422;29;20246;-83
2023/04/07 03:51:12;;;;;;;9.13;8.10;;;5.30;1.00;;;;;;4909700;29;20301;-84
2023/04/07 03:53:42;;;;;;;8.95;7.90;;;5.30;1.00;;;;;;4898863;29;20719;-84
2023/04/07 03:56:10;;;;;;;9.63;8.13;;;5.20;1.00;;;;;;4899988;29;20257;-83
2023/04/07 03:58:43;;;;;;;8.98;7.97;;;5.10;1.00;;;;;;4871673;29;20240;-82
2023/04/07 04:04:36;;;;;;;10.00;8.70;;;5.10;1.00;;;;;;5253134;23;20686;-82
2023/04/07 04:07:03;;;;;;;13.70;9.95;;;5.10;1.00;;;;;;4922031;28;20325;-82
2023/04/07 04:09:32;;;;;;;10.30;9.38;;;5.10;1.00;;;;;;4929139;28;20252;-81
2023/04/07 04:11:59;;;;;;;11.50;9.15;;;5.10;1.00;;;;;;4918486;28;20272;-81
2023/04/07 04:14:26;;;;;;;10.10;9.20;;;5.10;1.00;;;;;;4922053;28;21800;-81
2023/04/07 04:16:53;;;;;;;12.10;8.15;;;5.10;1.00;;;;;;4926120;28;21201;-81
2023/04/07 04:19:20;;;;;;;11.07;8.52;;;5.10;1.00;;;;;;4926660;28;20242;-81
2023/04/07 04:21:48;;;;;;;10.70;8.45;;;5.10;1.00;;;;;;4928540;28;20712;-81
2023/04/07 04:24:15;;;;;;;12.57;9.95;;;5.20;1.00;;;;;;4926444;28;20252;-82
2023/04/07 04:26:43;;;;;;;9.82;8.80;;;5.20;1.00;;;;;;4918710;28;20248;-82
2023/04/07 04:29:10;;;;;;;11.32;10.23;;;5.20;1.00;;;;;;4928332;28;20293;-83
2023/04/07 04:31:37;;;;;;;11.45;9.23;;;5.20;1.00;;;;;;4926942;28;20444;-82
2023/04/07 04:34:05;;;;;;;10.52;9.38;;;5.30;1.00;;;;;;4928252;28;20329;-82
2023/04/07 04:36:31;;;;;;;13.38;9.40;;;5.30;1.00;;;;;;4926304;28;20317;-81
2023/04/07 04:38:58;;;;;;;11.48;8.77;;;5.20;1.00;;;;;;4930626;28;20963;-81
2023/04/07 04:41:27;;;;;;;10.60;9.60;;;5.20;1.00;;;;;;4925222;28;20245;-81
2023/04/07 04:43:56;;;;;;;10.65;9.25;;;5.20;1.00;;;;;;4926102;28;20233;-80
2023/04/07 04:46:23;;;;;;;12.77;8.95;;;5.20;1.00;;;;;;4929957;28;20243;-81
2023/04/07 04:48:50;;;;;;;12.27;9.00;;;5.20;1.00;;;;;;4930136;28;20253;-82
2023/04/07 04:51:17;;;;;;;9.90;8.90;;;5.20;1.00;;;;;;4929953;28;20234;-81
2023/04/07 04:53:44;;;;;;;11.00;9.90;;;5.10;1.00;;;;;;4932667;28;20239;-82
2023/04/07 04:56:11;;;;;;;11.68;8.77;;;5.20;1.00;;;;;;4933464;28;20252;-82
2023/04/07 04:58:41;;;;;;;10.57;9.50;;;5.20;1.00;;;;;;4930764;28;20287;-81
2023/04/07 05:01:09;;;;;;;9.55;8.55;;;5.20;1.00;;;;;;4929088;28;20744;-81
2023/04/07 05:03:36;;;;;;;12.00;8.48;;;5.30;1.00;;;;;;4934334;28;20238;-81
2023/04/07 05:06:03;;;;;;;9.70;8.70;;;5.30;1.00;;;;;;4928928;28;20329;-82
2023/04/07 05:08:30;;;;;;;14.48;9.75;;;5.30;1.00;;;;;;4927117;28;20329;-82
2023/04/07 05:10:58;;;;;;;10.20;9.20;;;5.30;1.00;;;;;;4934328;28;20255;-82
2023/04/07 05:13:25;;;;;;;10.25;9.15;;;5.30;1.00;;;;;;4923056;28;20963;-82
2023/04/07 05:15:52;;;;;;;9.90;8.63;;;5.30;1.00;;;;;;4924726;28;20338;-82
2023/04/07 05:18:20;;;;;;;12.10;9.07;;;5.40;1.00;;;;;;4934818;28;20258;-82
2023/04/07 05:20:48;;;;;;;10.20;8.20;;;5.40;1.00;;;;;;4932116;28;20274;-82
2023/04/07 05:23:15;;;;;;;10.80;8.40;;;5.40;1.00;;;;;;4931296;28;20357;-83
2023/04/07 05:25:42;;;;;;;10.00;8.32;;;5.40;1.00;;;;;;4930516;28;20279;-82
2023/04/07 05:28:09;;;;;;;13.18;10.55;;;5.50;1.00;;;;;;4926100;28;20350;-83
2023/04/07 05:30:36;;;;;;;12.95;9.45;;;5.40;1.00;;;;;;4931852;28;20306;-82
2023/04/07 05:33:03;;;;;;;10.93;9.63;;;5.40;1.00;;;;;;4930375;28;20293;-82
2023/04/07 05:35:32;;;;;;;10.82;9.68;;;5.30;1.00;;;;;;4929779;28;20264;-81
2023/04/07 05:37:59;;;;;;;11.88;10.65;;;5.40;1.00;;;;;;4931189;28;20356;-82
2023/04/07 05:40:26;;;;;;;10.85;9.80;;;5.40;1.00;;;;;;4934298;28;20241;-82
2023/04/07 05:42:53;;;;;;;9.27;8.35;;;5.50;1.00;;;;;;4936411;28;20231;-82
2023/04/07 05:45:20;;;;;;;10.50;9.40;;;5.60;1.00;;;;;;4922338;28;20261;-81
2023/04/07 05:47:48;;;;;;;12.88;11.15;;;5.60;1.00;;;;;;4928880;28;20321;-82
2023/04/07 05:50:16;;;;;;;14.15;12.48;;;5.70;1.00;;;;;;4929919;28;20246;-82
2023/04/07 05:52:46;;;;;;;11.82;10.63;;;5.80;1.00;;;;;;4925509;28;20328;-83
2023/04/07 05:55:13;;;;;;;15.65;11.60;;;5.90;1.00;;;;;;4927630;28;20238;-82
2023/04/07 05:57:40;;;;;;;13.07;10.38;;;5.90;1.00;;;;;;4929751;28;20276;-83
2023/04/07 06:00:09;;;;;;;11.40;10.20;;;6.00;1.00;;;;;;4928514;28;20754;-83
2023/04/07 06:02:38;;;;;;;11.43;10.32;;;6.10;1.00;;;;;;4932801;28;20335;-82
2023/04/07 06:05:06;;;;;;;11.63;10.40;;;6.30;1.00;;;;;;4936758;28;20242;-83
2023/04/07 06:07:34;;;;;;;10.93;9.82;;;6.40;1.00;;;;;;4936910;28;21130;-83
2023/04/07 06:10:03;;;;;;;12.55;9.90;;;6.50;1.00;;;;;;4938118;28;20727;-82
2023/04/07 06:12:30;;;;;;;10.88;9.63;;;6.60;1.00;;;;;;4939063;28;20329;-83
2023/04/07 06:14:57;;;;;;;10.87;9.80;;;6.70;1.00;;;;;;4936799;28;20239;-81
2023/04/07 06:17:24;;;;;;;15.02;13.48;;;6.70;1.00;;;;;;4935174;28;20550;-81
2023/04/07 06:19:51;;;;;;;12.00;10.95;;;6.70;1.00;;;;;;4927844;28;21122;-83
2023/04/07 06:22:18;;;;;;;10.20;9.07;;;6.60;1.00;;;;;;4932192;28;20241;-82
2023/04/07 06:24:45;;;;;;;12.25;11.10;;;6.70;1.00;;;;;;4937676;28;20552;-82
2023/04/07 06:27:13;;;;;;;14.25;11.55;;;6.70;1.00;;;;;;4936431;28;20318;-83
2023/04/07 06:29:40;;;;;;;12.00;10.90;;;6.60;1.00;;;;;;4934628;28;20717;-81
2023/04/07 06:32:07;;;;;;;12.88;11.30;;;6.60;1.00;;;;;;4934959;28;20241;-84
2023/04/07 06:34:35;;;;;;;13.57;12.23;;;6.60;1.00;;;;;;4926780;28;20249;-80
2023/04/07 06:37:04;;;;;;;11.80;10.57;;;6.60;1.00;;;;;;4935701;28;20483;-79
2023/04/07 06:39:31;;;;;;;11.70;10.50;;;6.50;1.00;;;;;;4922520;28;20294;-79
2023/04/07 06:41:58;;;;;;;12.30;11.00;;;6.50;1.00;;;;;;4929175;28;21032;-80
2023/04/07 06:44:27;;;;;;;11.98;10.80;;;6.40;1.00;;;;;;4929762;28;20532;-80
2023/04/07 06:46:54;;;;;;;15.48;11.30;;;6.50;1.00;;;;;;4927768;28;20247;-79
2023/04/07 06:49:21;;;;;;;13.15;10.73;;;6.50;1.00;;;;;;4931405;28;20254;-80
2023/04/07 06:51:48;;;;;;;13.20;11.73;;;6.70;1.00;;;;;;4928648;28;20280;-78
2023/04/07 06:54:15;;;;;;;11.95;10.85;;;6.70;1.00;;;;;;4930718;28;20767;-76
2023/04/07 06:56:43;;;;;;;11.60;10.43;;;6.70;1.00;;;;;;4928988;28;20336;-77
2023/04/07 06:59:10;;;;;;;12.45;11.20;;;6.80;1.00;;;;;;4923632;28;20739;-78
2023/04/07 07:01:39;;;;;;;10.93;9.82;;;6.90;1.00;;;;;;4922324;28;20248;-78
2023/04/07 07:04:06;;;;;;;12.03;10.80;;;7.00;1.00;;;;;;4931774;28;20255;-78
2023/04/07 07:06:33;;;;;;;12.93;11.57;;;7.10;1.00;;;;;;4925186;28;20460;-78
2023/04/07 07:09:01;;;;;;;13.63;11.83;;;7.20;1.00;;;;;;4932460;28;20465;-78
2023/04/07 07:11:28;;;;;;;14.20;12.73;;;7.40;1.00;;;;;;4931187;28;20488;-78
2023/04/07 07:13:55;;;;;;;11.83;10.63;;;7.50;1.00;;;;;;4927525;28;20480;-78
2023/04/07 07:16:23;;;;;;;12.70;11.50;;;7.60;1.00;;;;;;4930739;28;20461;-78
2023/04/07 07:18:52;;;;;;;11.13;9.90;;;7.60;1.00;;;;;;4929953;28;20480;-77
2023/04/07 07:21:19;;;;;;;14.43;10.07;;;7.70;1.00;;;;;;4928422;28;21282;-77
2023/04/07 07:23:46;;;;;;;12.03;10.93;;;7.90;1.00;;;;;;4921639;28;20474;-77
2023/04/07 07:26:13;;;;;;;11.23;10.20;;;8.20;1.00;;;;;;4933701;28;21290;-77
2023/04/07 07:28:40;;;;;;;14.33;10.77;;;8.40;1.00;;;;;;4934897;28;20461;-76
2023/04/07 07:31:11;;;;;;;13.60;10.93;;;8.60;1.00;;;;;;4934509;28;20462;-77
2023/04/07 07:33:42;;;;;;;11.80;10.60;;;8.70;1.00;;;;;;4932420;28;20541;-77
2023/04/07 07:36:11;;;;;;;13.13;10.17;;;8.80;1.00;;;;;;4925354;28;20544;-77
2023/04/07 07:38:39;;;;;;;10.30;9.33;;;9.10;1.00;;;;;;4927014;28;20479;-77
2023/04/07 07:41:06;;;;;;;11.00;9.50;;;9.20;1.00;;;;;;4926988;28;22657;-77
2023/04/07 07:43:33;;;;;;;11.30;10.20;;;9.30;1.00;;;;;;4929053;28;20569;-77
2023/04/07 07:46:00;;;;;;;10.80;9.70;;;9.10;1.00;;;;;;4931169;28;20914;-77
2023/04/07 07:48:28;;;;;;;11.63;9.50;;;9.30;1.00;;;;;;4930171;28;20618;-78
2023/04/07 07:50:55;;;;;;;11.20;10.03;;;9.40;1.00;;;;;;4921639;28;20514;-77
2023/04/07 07:53:24;;;;;;;10.73;9.63;;;9.50;1.00;;;;;;4927950;28;20474;-77
2023/04/07 07:55:51;;;;;;;9.50;8.37;;;9.60;1.00;;;;;;4932039;28;20474;-76
2023/04/07 07:58:18;;;;;;;11.37;8.97;;;9.70;1.00;;;;;;4930918;28;20474;-77
2023/04/07 08:00:45;;;;;;;10.53;8.53;;;9.70;1.00;;;;;;4920993;28;20446;-77
2023/04/07 08:03:12;;;;;;;9.77;8.77;;;9.90;1.00;;;;;;4928801;28;20478;-77
2023/04/07 08:05:39;;;;;;;8.10;7.30;;;9.90;1.00;;;;;;4933967;28;20545;-77
2023/04/07 08:08:07;;;;;;;9.13;8.23;;;10.10;1.00;;;;;;4931399;28;20470;-77
2023/04/07 08:10:35;;;;;;;9.53;8.73;;;10.20;1.00;;;;;;4934956;28;20474;-77
2023/04/07 08:13:04;;;;;;;9.60;8.77;;;10.30;1.00;;;;;;4932471;28;20581;-78
2023/04/07 08:15:31;;;;;;;7.77;7.03;;;10.40;1.00;;;;;;4934866;28;20485;-76
2023/04/07 08:17:58;;;;;;;9.60;8.70;;;10.70;1.00;;;;;;4941456;28;20488;-78
2023/04/07 08:20:26;;;;;;;9.47;8.57;;;10.70;1.00;;;;;;4935583;28;20553;-79
2023/04/07 08:22:53;;;;;;;9.20;8.40;;;11.10;1.00;;;;;;4937179;28;20547;-79
2023/04/07 08:25:20;;;;;;;9.37;8.47;;;11.20;1.00;;;;;;4933333;28;21303;-79
2023/04/07 08:27:48;;;;;;;9.53;8.70;;;11.30;1.00;;;;;;4935664;28;21395;-79
2023/04/07 08:30:15;;;;;;;9.13;8.33;;;11.50;1.00;;;;;;4933959;28;20549;-79
2023/04/07 08:32:45;;;;;;;9.50;8.00;;;11.40;1.00;;;;;;4941379;28;20565;-79
2023/04/07 08:35:12;;;;;;;8.60;7.80;;;11.50;1.00;;;;;;4931305;28;20477;-78
2023/04/07 08:37:40;;;;;;;8.60;7.70;;;11.50;1.00;;;;;;4939651;28;20469;-79
2023/04/07 08:40:08;;;;;;;8.40;7.60;;;11.40;1.00;;;;;;4940704;28;20966;-79
2023/04/07 08:42:37;;;;;;;8.20;7.40;;;11.40;1.00;;;;;;4941085;28;20476;-79
2023/04/07 08:45:08;;;;;;;8.37;7.57;;;11.40;1.00;;;;;;4939102;28;20485;-79
2023/04/07 08:47:41;;;;;;;10.00;8.07;;;11.20;1.00;;;;;;4938197;28;20522;-80
2023/04/07 08:50:10;;;;;;;10.23;8.13;;;11.30;1.00;;;;;;4937187;28;20511;-80
2023/04/07 08:52:44;;;;;;;7.43;6.73;;;11.10;1.00;;;;;;4918182;28;20566;-79
2023/04/07 08:55:11;;;;;;;7.27;6.30;;;11.30;1.00;;;;;;4924636;28;20494;-80
2023/04/07 08:57:38;;;;;;;9.77;6.73;;;11.20;1.00;;;;;;4919399;28;20460;-77
2023/04/07 09:00:08;;;;;;;6.23;5.63;;;11.10;1.00;;;;;;4918357;28;20902;-78
2023/04/07 09:02:38;;;;;;;8.03;7.30;;;11.10;1.00;;;;;;4932543;28;20487;-78
2023/04/07 09:05:07;;;;;;;7.17;6.30;;;11.10;1.00;;;;;;4935053;28;20458;-78
2023/04/07 09:07:36;;;;;;;11.07;7.30;;;11.00;1.00;;;;;;4935476;28;21379;-77
2023/04/07 09:10:04;;;;;;;6.53;5.93;;;10.80;1.00;;;;;;4926711;28;20462;-78
2023/04/07 09:12:38;;;;;;;6.87;6.27;;;10.70;1.00;;;;;;4937288;28;20484;-80
2023/04/07 09:15:09;;;;;;;6.60;6.03;;;10.50;1.00;;;;;;4943389;28;20460;-81
2023/04/07 09:17:36;;;;;;;6.97;6.00;;;10.20;1.00;;;;;;4936545;28;21254;-78
2023/04/07 09:20:10;;;;;;;6.07;5.37;;;10.20;1.00;;;;;;4921028;28;20513;-79
2023/04/07 09:22:41;;;;;;;6.30;5.80;;;10.10;1.00;;;;;;4934321;28;20512;-79
2023/04/07 09:25:17;;;;;;;6.80;6.10;;;10.20;1.00;;;;;;4927495;28;20519;-78
2023/04/07 09:27:58;;;;;;;5.87;5.37;;;10.10;1.00;;;;;;4936289;28;20476;-79
2023/04/07 09:30:27;;;;;;;9.13;5.93;;;10.00;1.00;;;;;;4937834;28;20454;-78
2023/04/07 09:32:55;;;;;;;6.80;5.87;;;9.90;1.00;;;;;;4940865;28;20485;-80
2023/04/07 09:35:27;;;;;;;7.27;5.80;;;9.90;1.00;;;;;;4932095;28;20473;-80
2023/04/07 09:38:05;;;;;;;7.23;6.63;;;9.90;1.00;;;;;;4927207;28;20490;-80
2023/04/07 09:40:32;;;;;;;7.77;5.33;;;9.90;1.00;;;;;;4931409;28;20616;-80
2023/04/07 09:43:00;;;;;;;7.77;7.03;;;9.90;1.00;;;;;;4932710;28;20517;-80
2023/04/07 09:45:30;;;;;;;6.77;6.03;;;9.90;1.00;;;;;;4932923;28;21083;-80
2023/04/07 09:48:01;;;;;;;7.63;6.47;;;9.80;1.00;;;;;;4926872;28;21415;-79
2023/04/07 09:50:35;;;;;;;6.63;6.03;;;9.90;1.00;;;;;;4917707;28;21369;-78
2023/04/07 09:53:03;;;;;;;7.40;5.50;;;9.80;1.00;;;;;;4909224;28;20478;-80
2023/04/07 09:55:31;;;;;;;9.93;5.90;;;9.80;1.00;;;;;;4929326;28;20533;-78
2023/04/07 09:57:58;;;;;;;6.97;6.10;;;9.80;1.00;;;;;;4931616;28;20462;-78
2023/04/07 10:00:25;;;;;;;7.97;5.97;;;9.80;1.00;;;;;;4929483;28;20485;-78
2023/04/07 10:02:55;;;;;;;6.90;5.70;;;9.90;1.00;;;;;;4926397;28;20481;-79
2023/04/07 10:05:22;;;;;;;7.23;6.00;;;9.90;1.00;;;;;;4921305;28;20458;-76
2023/04/07 10:07:51;;;;;;;6.73;6.13;;;9.90;1.00;;;;;;4922373;28;21032;-77
2023/04/07 10:10:19;;;;;;;7.20;5.40;;;9.80;1.00;;;;;;4920280;28;20550;-78
2023/04/07 10:12:46;;;;;;;8.30;6.50;;;9.70;1.00;;;;;;4923264;28;20840;-77
2023/04/07 10:15:15;;;;;;;5.57;4.93;;;9.70;1.00;;;;;;4924336;28;20473;-76
2023/04/07 10:17:47;;;;;;;5.40;4.73;;;9.60;1.00;;;;;;4919003;28;21548;-76
2023/04/07 10:20:19;;;;;;;8.57;6.50;;;9.50;1.00;;;;;;4903461;28;20466;-79
2023/04/07 10:22:49;;;;;;;7.50;5.70;;;9.50;1.00;;;;;;4898869;29;21271;-80
2023/04/07 10:25:30;;;;;;;6.33;5.30;;;9.50;1.00;;;;;;4930672;28;20462;-83
2023/04/07 10:28:03;;;;;;;6.30;5.70;;;9.50;1.00;;;;;;4935192;28;20453;-82
2023/04/07 10:30:33;;;;;;;5.67;5.07;;;9.50;1.00;;;;;;4925752;28;20465;-84
2023/04/07 10:33:01;;;;;;;7.43;6.47;;;9.50;1.00;;;;;;4927942;28;20481;-83
2023/04/07 10:35:50;;;;;;;9.40;8.50;;;9.70;1.00;;;;;;4935597;28;20474;-86
2023/04/07 10:38:18;;;;;;;5.73;5.13;;;9.80;1.00;;;;;;4934335;28;20493;-85
2023/04/07 10:40:45;;;;;;;7.27;6.53;;;10.00;1.00;;;;;;4934087;28;20522;-84
2023/04/07 10:43:13;;;;;;;7.27;6.47;;;10.10;1.00;;;;;;4932216;28;20510;-83
2023/04/07 10:45:58;;;;;;;8.00;7.13;;;10.20;1.00;;;;;;4940133;28;20497;-87
2023/04/07 10:48:31;;;;;;;8.20;6.87;;;10.30;1.00;;;;;;4937498;28;20456;-85
2023/04/07 10:51:24;;;;;;;10.33;6.67;;;10.20;1.00;;;;;;4921323;28;20446;-83
2023/04/07 10:54:19;;;;;;;5.97;5.37;;;10.30;1.00;;;;;;4940129;28;20521;-87
2023/04/07 10:57:15;;;;;;;6.60;5.80;;;10.30;1.00;;;;;;4933326;28;20466;-85
2023/04/07 10:59:58;;;;;;;5.93;5.33;;;10.20;1.00;;;;;;4892548;28;20428;-84
2023/04/07 11:02:44;;;;;;;11.20;5.83;;;10.20;1.00;;;;;;4925004;28;20462;-85
2023/04/07 11:05:21;;;;;;;6.60;5.70;;;10.10;1.00;;;;;;4924411;28;20469;-85
2023/04/07 11:08:01;;;;;;;6.73;5.73;;;10.00;1.00;;;;;;4934126;28;20521;-83
2023/04/07 11:10:28;;;;;;;9.50;6.83;;;9.70;1.00;;;;;;4929396;28;20426;-85
2023/04/07 11:13:03;;;;;;;7.10;6.40;;;9.60;1.00;;;;;;4933879;28;21294;-86
2023/04/07 11:15:34;;;;;;;10.40;7.30;;;9.60;1.00;;;;;;4929985;28;20509;-82
2023/04/07 11:18:13;;;;;;;8.23;6.50;;;9.40;1.00;;;;;;4925685;28;20484;-81
2023/04/07 11:20:48;;;;;;;9.23;8.33;;;9.40;1.00;;;;;;4924146;28;20540;-81
2023/04/07 11:23:18;;;;;;;9.73;7.80;;;9.50;1.00;;;;;;4932165;28;20552;-82
2023/04/07 11:25:47;;;;;;;11.70;9.97;;;9.60;1.00;;;;;;4933555;28;20478;-83
2023/04/07 11:28:16;;;;;;;11.37;10.23;;;9.70;1.00;;;;;;4930569;28;20616;-83
2023/04/07 11:30:50;;;;;;;12.50;11.27;;;9.70;1.00;;;;;;4932566;28;20469;-83
2023/04/07 11:33:19;;;;;;;12.53;11.33;;;9.50;1.00;;;;;;4934928;28;20585;-84
2023/04/07 11:35:55;;;;;;;13.27;11.90;;;9.40;1.00;;;;;;4937451;28;20553;-84
2023/04/07 11:38:27;;;;;;;14.47;13.07;;;9.30;1.00;;;;;;4926608;28;20465;-83
2023/04/07 11:40:54;;;;;;;16.00;14.43;;;9.30;1.00;;;;;;4936245;28;20465;-83
2023/04/07 11:43:23;;;;;;;18.87;16.87;;;9.10;1.00;;;;;;4932150;28;20429;-85
2023/04/07 11:46:09;;;;;;;20.77;18.63;;;8.90;1.00;;;;;;4936056;28;20465;-84
2023/04/07 11:48:39;;;;;;;19.10;17.30;;;8.70;1.00;;;;;;4934219;28;21134;-83
2023/04/07 11:51:07;;;;;;;21.10;19.03;;;8.70;1.00;;;;;;4938269;28;20469;-84
2023/04/07 11:53:38;;;;;;;17.77;15.90;;;8.60;1.00;;;;;;4940974;28;20409;-85
2023/04/07 11:56:09;;;;;;;16.90;15.30;;;8.70;1.00;;;;;;4933490;28;20503;-84
2023/04/07 11:58:36;;;;;;;15.13;13.63;;;8.60;1.00;;;;;;4941906;28;20458;-83
2023/04/07 12:01:07;;;;;;;15.33;13.40;;;8.60;1.00;;;;;;4939119;28;21311;-84
2023/04/07 12:03:37;;;;;;;14.23;12.90;;;8.50;1.00;;;;;;4937660;28;20549;-84
2023/04/07 12:06:05;;;;;;;13.83;12.30;;;8.70;1.00;;;;;;4931075;28;20450;-85
2023/04/07 12:08:42;;;;;;;12.20;11.00;;;8.80;1.00;;;;;;4941639;28;20472;-83
2023/04/07 12:11:10;;;;;;;14.30;10.93;;;8.80;1.00;;;;;;4936426;28;20543;-85
2023/04/07 12:13:41;;;;;;;12.00;10.80;;;8.70;1.00;;;;;;4935328;28;20522;-85
2023/04/07 12:16:11;;;;;;;13.83;10.90;;;8.70;1.00;;;;;;4938348;28;20437;-85
2023/04/07 12:18:41;;;;;;;12.23;10.73;;;8.60;1.00;;;;;;4931038;28;20533;-83
2023/04/07 12:21:08;;;;;;;11.37;10.07;;;8.60;1.00;;;;;;4919898;28;20507;-84
2023/04/07 12:23:35;;;;;;;13.10;11.00;;;8.50;1.00;;;;;;4938828;28;20462;-85
2023/04/07 12:26:06;;;;;;;13.07;11.00;;;8.40;1.00;;;;;;4942946;28;20506;-83
2023/04/07 12:28:33;;;;;;;13.33;11.70;;;8.40;1.00;;;;;;4927906;28;20513;-84
2023/04/07 12:31:00;;;;;;;15.87;12.50;;;8.40;1.00;;;;;;4922932;28;20470;-83
2023/04/07 12:33:27;;;;;;;15.33;13.60;;;8.40;1.00;;;;;;4929848;28;20446;-82
2023/04/07 12:35:57;;;;;;;16.57;13.20;;;8.50;1.00;;;;;;4926508;28;20572;-85
2023/04/07 12:38:29;;;;;;;15.67;13.30;;;8.50;1.00;;;;;;4929154;28;20525;-83
2023/04/07 12:41:02;;;;;;;15.77;13.97;;;8.50;1.00;;;;;;4929387;28;20504;-80
2023/04/07 12:43:30;;;;;;;17.40;14.83;;;8.50;1.00;;;;;;4923206;28;20465;-80
2023/04/07 12:45:58;;;;;;;17.53;13.23;;;8.50;1.00;;;;;;4919082;28;20565;-80
2023/04/07 12:48:26;;;;;;;16.70;13.20;;;8.50;1.00;;;;;;4923824;28;20432;-81
2023/04/07 12:50:55;;;;;;;17.80;13.57;;;8.70;1.00;;;;;;4920096;28;20505;-81
2023/04/07 12:53:22;;;;;;;15.30;12.73;;;8.70;1.00;;;;;;4924855;28;21222;-81
2023/04/07 12:55:50;;;;;;;17.60;12.60;;;8.80;1.00;;;;;;4910402;28;20560;-79
2023/04/07 12:58:18;;;;;;;13.90;10.30;;;8.90;1.00;;;;;;4919633;28;20489;-80
2023/04/07 13:00:47;;;;;;;11.33;10.13;;;8.80;1.00;;;;;;4921031;28;20557;-81
2023/04/07 13:03:14;;;;;;;10.60;9.50;;;8.90;1.00;;;;;;4932362;28;20522;-80
2023/04/07 13:05:41;;;;;;;9.23;7.87;;;9.10;1.00;;;;;;4923580;28;20489;-81
2023/04/07 13:08:09;;;;;;;10.33;7.30;;;9.10;1.00;;;;;;4928358;28;20464;-79
2023/04/07 13:10:36;;;;;;;8.27;6.97;;;9.20;1.00;;;;;;4928554;28;20560;-79
2023/04/07 13:13:03;;;;;;;7.57;6.53;;;9.20;1.00;;;;;;4931322;28;20545;-79
2023/04/07 13:15:30;;;;;;;6.20;5.70;;;9.20;1.00;;;;;;4932879;28;20481;-80
2023/04/07 13:17:59;;;;;;;7.00;6.30;;;9.10;1.00;;;;;;4934280;28;20458;-79
2023/04/07 13:20:34;;;;;;;7.90;6.73;;;8.90;1.00;;;;;;4931706;28;20485;-80